sensor_id;sensor_type;location;lat;lon;timestamp;P1;durP1;ratioP1;P2;durP2;ratioP2
50417;SDS011;36346;48.280;14.292;2023-02-15T00:00:08;35.65;;;33.42;;
50417;SDS011;36346;48.280;14.292;2023-02-15T00:02:39;34.99;;;33.42;;
50417;SDS011;36346;48.280;14.292;2023-02-15T00:05:08;34.85;;;33.14;;
50417;SDS011;36346;48.280;14.292;2023-02-15T00:07:36;34.97;;;33.41;;
50417;SDS011;36346;48.280;14.292;2023-02-15T00:10:04;33.13;;;32.03;;
50417;SDS011;36346;48.280;14.292;2023-02-15T00:12:33;32.14;;;30.74;;
50417;SDS011;36346;48.280;14.292;2023-02-15T00:15:01;31.44;;;30.35;;
50417;SDS011;36346;48.280;14.292;2023-02-15T00:17:29;31.07;;;29.89;;
50417;SDS011;36346;48.280;14.292;2023-02-15T00:19:57;31.30;;;30.16;;
50417;SDS011;36346;48.280;14.292;2023-02-15T00:22:25;29.64;;;28.47;;
50417;SDS011;36346;48.280;14.292;2023-02-15T00:24:53;29.04;;;28.09;;
50417;SDS011;36346;48.280;14.292;2023-02-15T00:27:21;29.58;;;28.67;;
50417;SDS011;36346;48.280;14.292;2023-02-15T00:29:49;29.01;;;27.74;;
50417;SDS011;36346;48.280;14.292;2023-02-15T00:32:17;29.51;;;28.37;;
50417;SDS011;36346;48.280;14.292;2023-02-15T00:34:46;29.45;;;28.35;;
50417;SDS011;36346;48.280;14.292;2023-02-15T00:37:14;28.19;;;27.29;;
50417;SDS011;36346;48.280;14.292;2023-02-15T00:39:47;30.09;;;28.44;;
50417;SDS011;36346;48.280;14.292;2023-02-15T00:42:15;29.51;;;28.13;;
50417;SDS011;36346;48.280;14.292;2023-02-15T00:44:42;28.97;;;27.91;;
50417;SDS011;36346;48.280;14.292;2023-02-15T00:47:10;29.26;;;28.20;;
50417;SDS011;36346;48.280;14.292;2023-02-15T00:49:39;28.60;;;27.22;;
50417;SDS011;36346;48.280;14.292;2023-02-15T00:52:06;28.88;;;27.50;;
50417;SDS011;36346;48.280;14.292;2023-02-15T00:54:35;28.31;;;27.14;;
50417;SDS011;36346;48.280;14.292;2023-02-15T00:57:04;27.86;;;26.84;;
50417;SDS011;36346;48.280;14.292;2023-02-15T00:59:32;27.07;;;25.83;;
50417;SDS011;36346;48.280;14.292;2023-02-15T01:02:00;26.87;;;25.77;;
50417;SDS011;36346;48.280;14.292;2023-02-15T01:04:29;25.62;;;24.81;;
50417;SDS011;36346;48.280;14.292;2023-02-15T01:06:57;24.90;;;24.04;;
50417;SDS011;36346;48.280;14.292;2023-02-15T01:09:25;26.11;;;24.93;;
50417;SDS011;36346;48.280;14.292;2023-02-15T01:11:53;25.96;;;25.01;;
50417;SDS011;36346;48.280;14.292;2023-02-15T01:14:21;25.28;;;24.33;;
50417;SDS011;36346;48.280;14.292;2023-02-15T01:16:49;25.36;;;24.33;;
50417;SDS011;36346;48.280;14.292;2023-02-15T01:19:17;25.85;;;24.69;;
50417;SDS011;36346;48.280;14.292;2023-02-15T01:21:45;26.07;;;24.84;;
50417;SDS011;36346;48.280;14.292;2023-02-15T01:24:14;25.88;;;24.86;;
50417;SDS011;36346;48.280;14.292;2023-02-15T01:26:42;25.02;;;23.76;;
50417;SDS011;36346;48.280;14.292;2023-02-15T01:29:09;25.03;;;23.85;;
50417;SDS011;36346;48.280;14.292;2023-02-15T01:31:37;24.84;;;23.85;;
50417;SDS011;36346;48.280;14.292;2023-02-15T01:34:07;24.66;;;23.81;;
50417;SDS011;36346;48.280;14.292;2023-02-15T01:36:34;25.35;;;24.27;;
50417;SDS011;36346;48.280;14.292;2023-02-15T01:39:03;25.60;;;24.43;;
50417;SDS011;36346;48.280;14.292;2023-02-15T01:41:32;25.63;;;24.32;;
50417;SDS011;36346;48.280;14.292;2023-02-15T01:44:01;25.20;;;24.04;;
50417;SDS011;36346;48.280;14.292;2023-02-15T01:46:35;25.29;;;23.93;;
50417;SDS011;36346;48.280;14.292;2023-02-15T01:49:11;24.71;;;23.53;;
50417;SDS011;36346;48.280;14.292;2023-02-15T01:51:45;25.03;;;24.15;;
50417;SDS011;36346;48.280;14.292;2023-02-15T01:54:16;24.98;;;23.77;;
50417;SDS011;36346;48.280;14.292;2023-02-15T01:56:48;24.73;;;23.69;;
50417;SDS011;36346;48.280;14.292;2023-02-15T01:59:17;24.89;;;23.89;;
50417;SDS011;36346;48.280;14.292;2023-02-15T02:01:49;25.01;;;23.98;;
50417;SDS011;36346;48.280;14.292;2023-02-15T02:07:31;24.96;;;24.07;;
50417;SDS011;36346;48.280;14.292;2023-02-15T02:10:11;25.33;;;24.24;;
50417;SDS011;36346;48.280;14.292;2023-02-15T02:12:41;24.47;;;23.50;;
50417;SDS011;36346;48.280;14.292;2023-02-15T02:15:13;26.88;;;25.36;;
50417;SDS011;36346;48.280;14.292;2023-02-15T02:28:55;24.86;;;24.07;;
50417;SDS011;36346;48.280;14.292;2023-02-15T02:36:54;24.65;;;23.62;;
50417;SDS011;36346;48.280;14.292;2023-02-15T02:45:02;25.39;;;24.43;;
50417;SDS011;36346;48.280;14.292;2023-02-15T02:47:35;27.08;;;26.06;;
50417;SDS011;36346;48.280;14.292;2023-02-15T02:50:14;24.67;;;23.78;;
50417;SDS011;36346;48.280;14.292;2023-02-15T02:52:46;24.72;;;23.75;;
50417;SDS011;36346;48.280;14.292;2023-02-15T02:55:21;24.56;;;23.62;;
50417;SDS011;36346;48.280;14.292;2023-02-15T02:58:19;25.23;;;24.22;;
50417;SDS011;36346;48.280;14.292;2023-02-15T03:06:00;27.28;;;25.62;;
50417;SDS011;36346;48.280;14.292;2023-02-15T03:08:40;27.33;;;25.72;;
50417;SDS011;36346;48.280;14.292;2023-02-15T03:11:12;26.85;;;25.24;;
50417;SDS011;36346;48.280;14.292;2023-02-15T03:13:41;26.50;;;24.95;;
50417;SDS011;36346;48.280;14.292;2023-02-15T03:16:13;26.42;;;24.77;;
50417;SDS011;36346;48.280;14.292;2023-02-15T03:19:04;26.14;;;24.57;;
50417;SDS011;36346;48.280;14.292;2023-02-15T03:24:12;26.53;;;24.93;;
50417;SDS011;36346;48.280;14.292;2023-02-15T03:26:48;27.59;;;25.63;;
50417;SDS011;36346;48.280;14.292;2023-02-15T03:29:20;27.19;;;25.58;;
50417;SDS011;36346;48.280;14.292;2023-02-15T03:31:59;26.40;;;24.82;;
50417;SDS011;36346;48.280;14.292;2023-02-15T03:34:31;28.17;;;26.22;;
50417;SDS011;36346;48.280;14.292;2023-02-15T03:37:13;27.02;;;25.44;;
50417;SDS011;36346;48.280;14.292;2023-02-15T03:39:47;30.17;;;27.99;;
50417;SDS011;36346;48.280;14.292;2023-02-15T03:42:33;32.71;;;30.63;;
50417;SDS011;36346;48.280;14.292;2023-02-15T03:45:08;30.12;;;28.05;;
50417;SDS011;36346;48.280;14.292;2023-02-15T03:47:43;29.98;;;27.63;;
50417;SDS011;36346;48.280;14.292;2023-02-15T03:50:21;31.02;;;28.47;;
50417;SDS011;36346;48.280;14.292;2023-02-15T03:53:11;31.15;;;28.59;;
50417;SDS011;36346;48.280;14.292;2023-02-15T03:55:52;32.41;;;29.80;;
50417;SDS011;36346;48.280;14.292;2023-02-15T03:58:22;34.13;;;30.88;;
50417;SDS011;36346;48.280;14.292;2023-02-15T04:01:20;34.43;;;31.09;;
50417;SDS011;36346;48.280;14.292;2023-02-15T04:07:06;34.17;;;31.10;;
50417;SDS011;36346;48.280;14.292;2023-02-15T04:09:35;34.75;;;31.73;;
50417;SDS011;36346;48.280;14.292;2023-02-15T04:12:22;37.59;;;34.11;;
50417;SDS011;36346;48.280;14.292;2023-02-15T04:14:51;37.07;;;33.66;;
50417;SDS011;36346;48.280;14.292;2023-02-15T04:17:37;33.77;;;31.04;;
50417;SDS011;36346;48.280;14.292;2023-02-15T04:20:06;32.76;;;30.13;;
50417;SDS011;36346;48.280;14.292;2023-02-15T04:22:54;32.20;;;29.39;;
50417;SDS011;36346;48.280;14.292;2023-02-15T04:25:41;32.24;;;29.76;;
50417;SDS011;36346;48.280;14.292;2023-02-15T04:28:09;33.30;;;30.55;;
50417;SDS011;36346;48.280;14.292;2023-02-15T04:30:37;33.41;;;30.89;;
50417;SDS011;36346;48.280;14.292;2023-02-15T04:33:05;33.76;;;31.15;;
50417;SDS011;36346;48.280;14.292;2023-02-15T04:35:32;34.23;;;31.32;;
50417;SDS011;36346;48.280;14.292;2023-02-15T04:38:01;35.95;;;33.09;;
50417;SDS011;36346;48.280;14.292;2023-02-15T04:40:29;35.69;;;32.90;;
50417;SDS011;36346;48.280;14.292;2023-02-15T04:42:56;36.36;;;33.02;;
50417;SDS011;36346;48.280;14.292;2023-02-15T04:45:24;35.23;;;32.50;;
50417;SDS011;36346;48.280;14.292;2023-02-15T04:47:52;35.87;;;32.63;;
50417;SDS011;36346;48.280;14.292;2023-02-15T04:50:20;36.77;;;33.36;;
50417;SDS011;36346;48.280;14.292;2023-02-15T04:52:48;35.82;;;33.00;;
50417;SDS011;36346;48.280;14.292;2023-02-15T04:55:17;34.34;;;31.93;;
50417;SDS011;36346;48.280;14.292;2023-02-15T04:57:45;38.54;;;35.08;;
50417;SDS011;36346;48.280;14.292;2023-02-15T05:00:14;39.92;;;36.67;;
50417;SDS011;36346;48.280;14.292;2023-02-15T05:02:42;41.28;;;38.32;;
50417;SDS011;36346;48.280;14.292;2023-02-15T05:05:09;42.47;;;38.65;;
50417;SDS011;36346;48.280;14.292;2023-02-15T05:07:40;42.16;;;38.33;;
50417;SDS011;36346;48.280;14.292;2023-02-15T05:10:08;40.54;;;37.03;;
50417;SDS011;36346;48.280;14.292;2023-02-15T05:12:36;44.06;;;39.53;;
50417;SDS011;36346;48.280;14.292;2023-02-15T05:15:04;43.79;;;39.60;;
50417;SDS011;36346;48.280;14.292;2023-02-15T05:17:33;45.19;;;40.94;;
50417;SDS011;36346;48.280;14.292;2023-02-15T05:20:01;46.64;;;42.14;;
50417;SDS011;36346;48.280;14.292;2023-02-15T05:22:29;45.21;;;40.76;;
50417;SDS011;36346;48.280;14.292;2023-02-15T05:24:57;45.38;;;41.42;;
50417;SDS011;36346;48.280;14.292;2023-02-15T05:27:43;44.63;;;40.65;;
50417;SDS011;36346;48.280;14.292;2023-02-15T05:30:31;46.63;;;42.17;;
50417;SDS011;36346;48.280;14.292;2023-02-15T05:33:00;45.77;;;41.48;;
50417;SDS011;36346;48.280;14.292;2023-02-15T05:35:28;45.16;;;41.20;;
50417;SDS011;36346;48.280;14.292;2023-02-15T05:37:56;45.35;;;40.91;;
50417;SDS011;36346;48.280;14.292;2023-02-15T05:40:25;44.59;;;40.49;;
50417;SDS011;36346;48.280;14.292;2023-02-15T05:42:53;44.68;;;40.75;;
50417;SDS011;36346;48.280;14.292;2023-02-15T05:45:21;46.19;;;41.71;;
50417;SDS011;36346;48.280;14.292;2023-02-15T05:47:49;45.60;;;42.25;;
50417;SDS011;36346;48.280;14.292;2023-02-15T05:50:17;46.64;;;42.88;;
50417;SDS011;36346;48.280;14.292;2023-02-15T05:52:47;46.20;;;42.76;;
50417;SDS011;36346;48.280;14.292;2023-02-15T05:55:17;46.95;;;42.75;;
50417;SDS011;36346;48.280;14.292;2023-02-15T05:57:45;47.42;;;43.82;;
50417;SDS011;36346;48.280;14.292;2023-02-15T06:00:14;47.02;;;43.24;;
50417;SDS011;36346;48.280;14.292;2023-02-15T06:02:42;47.64;;;43.24;;
50417;SDS011;36346;48.280;14.292;2023-02-15T06:05:10;47.01;;;43.39;;
50417;SDS011;36346;48.280;14.292;2023-02-15T06:07:38;46.52;;;42.92;;
50417;SDS011;36346;48.280;14.292;2023-02-15T06:10:06;46.04;;;42.43;;
50417;SDS011;36346;48.280;14.292;2023-02-15T06:12:34;46.08;;;42.87;;
50417;SDS011;36346;48.280;14.292;2023-02-15T06:15:03;46.59;;;43.09;;
50417;SDS011;36346;48.280;14.292;2023-02-15T06:17:31;45.54;;;42.82;;
50417;SDS011;36346;48.280;14.292;2023-02-15T06:20:00;45.90;;;43.02;;
50417;SDS011;36346;48.280;14.292;2023-02-15T06:22:28;46.43;;;43.07;;
50417;SDS011;36346;48.280;14.292;2023-02-15T06:24:56;46.28;;;42.67;;
50417;SDS011;36346;48.280;14.292;2023-02-15T06:27:23;45.37;;;42.25;;
50417;SDS011;36346;48.280;14.292;2023-02-15T06:29:51;46.13;;;42.42;;
50417;SDS011;36346;48.280;14.292;2023-02-15T06:32:19;44.73;;;41.53;;
50417;SDS011;36346;48.280;14.292;2023-02-15T06:34:47;46.21;;;42.72;;
50417;SDS011;36346;48.280;14.292;2023-02-15T06:37:15;45.95;;;42.67;;
50417;SDS011;36346;48.280;14.292;2023-02-15T06:39:43;46.43;;;43.28;;
50417;SDS011;36346;48.280;14.292;2023-02-15T06:42:11;47.00;;;43.18;;
50417;SDS011;36346;48.280;14.292;2023-02-15T06:44:40;45.90;;;42.34;;
50417;SDS011;36346;48.280;14.292;2023-02-15T06:47:08;45.73;;;41.95;;
50417;SDS011;36346;48.280;14.292;2023-02-15T06:49:36;45.40;;;41.89;;
50417;SDS011;36346;48.280;14.292;2023-02-15T06:52:04;44.59;;;41.61;;
50417;SDS011;36346;48.280;14.292;2023-02-15T06:54:32;44.59;;;41.38;;
50417;SDS011;36346;48.280;14.292;2023-02-15T06:57:00;46.92;;;42.83;;
50417;SDS011;36346;48.280;14.292;2023-02-15T06:59:28;46.60;;;42.90;;
50417;SDS011;36346;48.280;14.292;2023-02-15T07:01:56;46.90;;;43.14;;
50417;SDS011;36346;48.280;14.292;2023-02-15T07:04:24;47.43;;;43.29;;
50417;SDS011;36346;48.280;14.292;2023-02-15T07:06:52;47.87;;;44.02;;
50417;SDS011;36346;48.280;14.292;2023-02-15T07:09:21;48.47;;;44.11;;
50417;SDS011;36346;48.280;14.292;2023-02-15T07:11:49;43.46;;;39.83;;
50417;SDS011;36346;48.280;14.292;2023-02-15T07:14:36;46.01;;;41.78;;
50417;SDS011;36346;48.280;14.292;2023-02-15T07:17:04;45.91;;;42.07;;
50417;SDS011;36346;48.280;14.292;2023-02-15T07:19:41;46.22;;;42.14;;
50417;SDS011;36346;48.280;14.292;2023-02-15T07:22:09;46.86;;;42.35;;
50417;SDS011;36346;48.280;14.292;2023-02-15T07:24:36;45.73;;;42.34;;
50417;SDS011;36346;48.280;14.292;2023-02-15T07:27:06;44.68;;;40.76;;
50417;SDS011;36346;48.280;14.292;2023-02-15T07:29:34;44.42;;;40.39;;
50417;SDS011;36346;48.280;14.292;2023-02-15T07:32:02;44.76;;;40.91;;
50417;SDS011;36346;48.280;14.292;2023-02-15T07:34:30;45.66;;;41.46;;
50417;SDS011;36346;48.280;14.292;2023-02-15T07:36:59;45.99;;;41.96;;
50417;SDS011;36346;48.280;14.292;2023-02-15T07:39:26;45.58;;;41.65;;
50417;SDS011;36346;48.280;14.292;2023-02-15T07:41:54;46.87;;;42.29;;
50417;SDS011;36346;48.280;14.292;2023-02-15T07:44:26;44.98;;;40.87;;
50417;SDS011;36346;48.280;14.292;2023-02-15T07:46:54;45.96;;;41.64;;
50417;SDS011;36346;48.280;14.292;2023-02-15T07:49:22;41.07;;;37.52;;
50417;SDS011;36346;48.280;14.292;2023-02-15T07:51:51;30.83;;;28.51;;
50417;SDS011;36346;48.280;14.292;2023-02-15T07:54:18;30.56;;;28.45;;
50417;SDS011;36346;48.280;14.292;2023-02-15T07:56:46;33.63;;;31.24;;
50417;SDS011;36346;48.280;14.292;2023-02-15T07:59:14;33.31;;;30.55;;
50417;SDS011;36346;48.280;14.292;2023-02-15T08:01:42;33.81;;;31.37;;
50417;SDS011;36346;48.280;14.292;2023-02-15T08:04:10;31.67;;;29.18;;
50417;SDS011;36346;48.280;14.292;2023-02-15T08:06:38;28.35;;;26.75;;
50417;SDS011;36346;48.280;14.292;2023-02-15T08:09:07;27.34;;;25.56;;
50417;SDS011;36346;48.280;14.292;2023-02-15T08:11:36;27.39;;;25.65;;
50417;SDS011;36346;48.280;14.292;2023-02-15T08:14:14;27.23;;;25.29;;
50417;SDS011;36346;48.280;14.292;2023-02-15T08:16:48;27.56;;;25.80;;
50417;SDS011;36346;48.280;14.292;2023-02-15T08:21:53;28.41;;;26.04;;
50417;SDS011;36346;48.280;14.292;2023-02-15T08:24:26;29.15;;;26.62;;
50417;SDS011;36346;48.280;14.292;2023-02-15T08:26:55;30.26;;;27.99;;
50417;SDS011;36346;48.280;14.292;2023-02-15T08:29:26;30.13;;;27.88;;
50417;SDS011;36346;48.280;14.292;2023-02-15T08:31:58;31.30;;;28.50;;
50417;SDS011;36346;48.280;14.292;2023-02-15T08:34:31;32.42;;;29.65;;
50417;SDS011;36346;48.280;14.292;2023-02-15T08:37:01;32.04;;;29.93;;
50417;SDS011;36346;48.280;14.292;2023-02-15T08:39:29;34.35;;;30.79;;
50417;SDS011;36346;48.280;14.292;2023-02-15T08:41:57;32.91;;;30.07;;
50417;SDS011;36346;48.280;14.292;2023-02-15T08:44:25;32.98;;;30.53;;
50417;SDS011;36346;48.280;14.292;2023-02-15T08:46:53;33.66;;;30.72;;
50417;SDS011;36346;48.280;14.292;2023-02-15T08:49:22;33.02;;;30.50;;
50417;SDS011;36346;48.280;14.292;2023-02-15T08:51:50;34.69;;;31.40;;
50417;SDS011;36346;48.280;14.292;2023-02-15T08:54:19;35.28;;;31.82;;
50417;SDS011;36346;48.280;14.292;2023-02-15T08:56:48;34.03;;;30.97;;
50417;SDS011;36346;48.280;14.292;2023-02-15T08:59:17;39.89;;;36.12;;
50417;SDS011;36346;48.280;14.292;2023-02-15T09:01:48;42.79;;;38.61;;
50417;SDS011;36346;48.280;14.292;2023-02-15T09:04:18;44.20;;;40.32;;
50417;SDS011;36346;48.280;14.292;2023-02-15T09:06:47;43.83;;;40.68;;
50417;SDS011;36346;48.280;14.292;2023-02-15T09:09:16;45.54;;;42.20;;
50417;SDS011;36346;48.280;14.292;2023-02-15T09:11:46;46.88;;;42.76;;
50417;SDS011;36346;48.280;14.292;2023-02-15T09:14:20;45.69;;;42.02;;
50417;SDS011;36346;48.280;14.292;2023-02-15T09:16:49;46.45;;;42.22;;
50417;SDS011;36346;48.280;14.292;2023-02-15T09:19:19;45.77;;;41.74;;
50417;SDS011;36346;48.280;14.292;2023-02-15T09:21:49;46.22;;;42.51;;
50417;SDS011;36346;48.280;14.292;2023-02-15T09:24:17;47.70;;;43.24;;
50417;SDS011;36346;48.280;14.292;2023-02-15T09:26:46;46.26;;;42.19;;
50417;SDS011;36346;48.280;14.292;2023-02-15T09:29:16;45.97;;;42.32;;
50417;SDS011;36346;48.280;14.292;2023-02-15T09:31:45;47.00;;;43.23;;
50417;SDS011;36346;48.280;14.292;2023-02-15T09:34:17;48.89;;;44.56;;
50417;SDS011;36346;48.280;14.292;2023-02-15T09:36:47;50.88;;;46.74;;
50417;SDS011;36346;48.280;14.292;2023-02-15T09:39:17;50.21;;;46.18;;
50417;SDS011;36346;48.280;14.292;2023-02-15T09:44:27;50.13;;;46.47;;
50417;SDS011;36346;48.280;14.292;2023-02-15T09:55:43;53.41;;;48.78;;
50417;SDS011;36346;48.280;14.292;2023-02-15T10:01:17;52.74;;;47.85;;
50417;SDS011;36346;48.280;14.292;2023-02-15T10:12:26;54.97;;;49.75;;
50417;SDS011;36346;48.280;14.292;2023-02-15T10:23:20;58.63;;;54.04;;
50417;SDS011;36346;48.280;14.292;2023-02-15T10:26:00;55.16;;;51.08;;
50417;SDS011;36346;48.280;14.292;2023-02-15T10:28:52;55.95;;;51.55;;
50417;SDS011;36346;48.280;14.292;2023-02-15T10:34:06;56.35;;;52.09;;
50417;SDS011;36346;48.280;14.292;2023-02-15T10:39:22;51.55;;;47.35;;
50417;SDS011;36346;48.280;14.292;2023-02-15T10:42:11;52.73;;;47.65;;
50417;SDS011;36346;48.280;14.292;2023-02-15T10:50:32;55.05;;;49.43;;
50417;SDS011;36346;48.280;14.292;2023-02-15T11:01:38;89.56;;;79.80;;
50417;SDS011;36346;48.280;14.292;2023-02-15T11:06:59;96.79;;;85.75;;
50417;SDS011;36346;48.280;14.292;2023-02-15T11:09:40;95.45;;;84.57;;
50417;SDS011;36346;48.280;14.292;2023-02-15T11:12:14;92.78;;;82.16;;
50417;SDS011;36346;48.280;14.292;2023-02-15T11:17:34;89.14;;;79.58;;
50417;SDS011;36346;48.280;14.292;2023-02-15T11:20:21;89.05;;;80.09;;
50417;SDS011;36346;48.280;14.292;2023-02-15T11:22:53;88.07;;;79.37;;
50417;SDS011;36346;48.280;14.292;2023-02-15T11:27:55;88.63;;;80.40;;
50417;SDS011;36346;48.280;14.292;2023-02-15T11:30:25;90.79;;;81.66;;
50417;SDS011;36346;48.280;14.292;2023-02-15T11:32:57;94.10;;;84.43;;
50417;SDS011;36346;48.280;14.292;2023-02-15T11:35:31;89.12;;;79.68;;
50417;SDS011;36346;48.280;14.292;2023-02-15T11:38:11;86.18;;;77.83;;
50417;SDS011;36346;48.280;14.292;2023-02-15T11:40:47;64.43;;;58.23;;
50417;SDS011;36346;48.280;14.292;2023-02-15T11:43:22;58.42;;;53.19;;
50417;SDS011;36346;48.280;14.292;2023-02-15T11:45:55;57.11;;;52.13;;
50417;SDS011;36346;48.280;14.292;2023-02-15T11:48:23;59.19;;;53.78;;
50417;SDS011;36346;48.280;14.292;2023-02-15T11:50:51;59.97;;;55.10;;
50417;SDS011;36346;48.280;14.292;2023-02-15T11:53:20;69.37;;;62.89;;
50417;SDS011;36346;48.280;14.292;2023-02-15T11:55:52;76.54;;;68.74;;
50417;SDS011;36346;48.280;14.292;2023-02-15T12:01:14;77.31;;;69.43;;
50417;SDS011;36346;48.280;14.292;2023-02-15T12:03:54;71.28;;;64.43;;
50417;SDS011;36346;48.280;14.292;2023-02-15T12:06:35;70.71;;;63.94;;
50417;SDS011;36346;48.280;14.292;2023-02-15T12:15:00;73.52;;;66.75;;
50417;SDS011;36346;48.280;14.292;2023-02-15T12:17:41;72.96;;;66.05;;
50417;SDS011;36346;48.280;14.292;2023-02-15T12:22:49;73.98;;;66.75;;
50417;SDS011;36346;48.280;14.292;2023-02-15T12:25:24;73.26;;;66.60;;
50417;SDS011;36346;48.280;14.292;2023-02-15T12:28:04;70.51;;;64.47;;
50417;SDS011;36346;48.280;14.292;2023-02-15T12:30:34;73.35;;;65.68;;
50417;SDS011;36346;48.280;14.292;2023-02-15T12:33:26;70.06;;;63.28;;
50417;SDS011;36346;48.280;14.292;2023-02-15T12:35:59;70.01;;;63.18;;
50417;SDS011;36346;48.280;14.292;2023-02-15T12:38:31;70.65;;;63.66;;
50417;SDS011;36346;48.280;14.292;2023-02-15T12:41:01;72.99;;;65.68;;
50417;SDS011;36346;48.280;14.292;2023-02-15T12:43:35;76.70;;;68.41;;
50417;SDS011;36346;48.280;14.292;2023-02-15T12:49:04;76.23;;;68.50;;
50417;SDS011;36346;48.280;14.292;2023-02-15T12:51:42;76.00;;;68.84;;
50417;SDS011;36346;48.280;14.292;2023-02-15T12:56:50;76.87;;;69.14;;
50417;SDS011;36346;48.280;14.292;2023-02-15T12:59:19;75.92;;;68.35;;
50417;SDS011;36346;48.280;14.292;2023-02-15T13:01:50;75.63;;;67.90;;
50417;SDS011;36346;48.280;14.292;2023-02-15T13:04:27;72.43;;;65.74;;
50417;SDS011;36346;48.280;14.292;2023-02-15T13:07:01;69.59;;;63.30;;
50417;SDS011;36346;48.280;14.292;2023-02-15T13:14:54;79.49;;;72.19;;
50417;SDS011;36346;48.280;14.292;2023-02-15T13:17:25;78.35;;;71.28;;
50417;SDS011;36346;48.280;14.292;2023-02-15T13:19:58;74.19;;;67.36;;
50417;SDS011;36346;48.280;14.292;2023-02-15T13:22:38;70.68;;;64.89;;
50417;SDS011;36346;48.280;14.292;2023-02-15T13:25:13;73.12;;;66.34;;
50417;SDS011;36346;48.280;14.292;2023-02-15T13:27:48;75.62;;;68.56;;
50417;SDS011;36346;48.280;14.292;2023-02-15T13:32:49;73.53;;;66.97;;
50417;SDS011;36346;48.280;14.292;2023-02-15T13:35:20;75.09;;;68.14;;
50417;SDS011;36346;48.280;14.292;2023-02-15T13:40:40;75.97;;;69.03;;
50417;SDS011;36346;48.280;14.292;2023-02-15T13:45:59;78.68;;;71.35;;
50417;SDS011;36346;48.280;14.292;2023-02-15T13:49:09;79.87;;;72.39;;
50417;SDS011;36346;48.280;14.292;2023-02-15T13:51:42;78.66;;;70.96;;
50417;SDS011;36346;48.280;14.292;2023-02-15T13:54:31;77.25;;;69.70;;
50417;SDS011;36346;48.280;14.292;2023-02-15T13:57:28;76.21;;;68.82;;
50417;SDS011;36346;48.280;14.292;2023-02-15T14:00:21;73.91;;;67.06;;
50417;SDS011;36346;48.280;14.292;2023-02-15T14:17:47;65.46;;;60.19;;
50417;SDS011;36346;48.280;14.292;2023-02-15T14:20:39;65.45;;;59.53;;
50417;SDS011;36346;48.280;14.292;2023-02-15T14:23:19;61.02;;;55.92;;
50417;SDS011;36346;48.280;14.292;2023-02-15T14:26:11;58.32;;;53.88;;
50417;SDS011;36346;48.280;14.292;2023-02-15T14:31:25;60.44;;;55.50;;
50417;SDS011;36346;48.280;14.292;2023-02-15T14:33:58;59.09;;;54.17;;
50417;SDS011;36346;48.280;14.292;2023-02-15T14:36:27;61.72;;;56.26;;
50417;SDS011;36346;48.280;14.292;2023-02-15T14:42:15;59.06;;;54.84;;
50417;SDS011;36346;48.280;14.292;2023-02-15T14:50:38;59.20;;;55.08;;
50417;SDS011;36346;48.280;14.292;2023-02-15T15:01:32;61.55;;;56.41;;
50417;SDS011;36346;48.280;14.292;2023-02-15T15:04:14;60.24;;;55.78;;
50417;SDS011;36346;48.280;14.292;2023-02-15T15:06:59;60.68;;;55.89;;
50417;SDS011;36346;48.280;14.292;2023-02-15T15:09:30;61.56;;;56.33;;
50417;SDS011;36346;48.280;14.292;2023-02-15T15:14:49;58.54;;;54.52;;
50417;SDS011;36346;48.280;14.292;2023-02-15T15:20:09;57.93;;;54.14;;
50417;SDS011;36346;48.280;14.292;2023-02-15T15:22:44;58.10;;;54.06;;
50417;SDS011;36346;48.280;14.292;2023-02-15T15:28:03;57.98;;;53.87;;
50417;SDS011;36346;48.280;14.292;2023-02-15T15:33:13;55.73;;;52.16;;
50417;SDS011;36346;48.280;14.292;2023-02-15T15:39:20;58.16;;;53.93;;
50417;SDS011;36346;48.280;14.292;2023-02-15T15:50:58;59.48;;;55.03;;
50417;SDS011;36346;48.280;14.292;2023-02-15T15:53:29;61.03;;;56.62;;
50417;SDS011;36346;48.280;14.292;2023-02-15T15:56:06;61.16;;;57.02;;
50417;SDS011;36346;48.280;14.292;2023-02-15T15:58:44;60.95;;;56.52;;
50417;SDS011;36346;48.280;14.292;2023-02-15T16:01:26;58.18;;;54.70;;
50417;SDS011;36346;48.280;14.292;2023-02-15T16:03:57;60.32;;;56.33;;
50417;SDS011;36346;48.280;14.292;2023-02-15T16:06:44;60.94;;;57.10;;
50417;SDS011;36346;48.280;14.292;2023-02-15T16:09:15;59.94;;;56.52;;
50417;SDS011;36346;48.280;14.292;2023-02-15T16:11:47;60.61;;;56.75;;
50417;SDS011;36346;48.280;14.292;2023-02-15T16:17:22;67.34;;;62.27;;
50417;SDS011;36346;48.280;14.292;2023-02-15T16:19:57;65.02;;;59.93;;
50417;SDS011;36346;48.280;14.292;2023-02-15T16:22:39;62.12;;;57.42;;
50417;SDS011;36346;48.280;14.292;2023-02-15T16:25:13;62.17;;;58.16;;
50417;SDS011;36346;48.280;14.292;2023-02-15T16:28:10;63.57;;;58.47;;
50417;SDS011;36346;48.280;14.292;2023-02-15T16:30:39;60.99;;;56.66;;
50417;SDS011;36346;48.280;14.292;2023-02-15T16:35:55;61.84;;;58.07;;
50417;SDS011;36346;48.280;14.292;2023-02-15T16:41:12;63.78;;;59.56;;
50417;SDS011;36346;48.280;14.292;2023-02-15T16:43:45;64.73;;;59.80;;
50417;SDS011;36346;48.280;14.292;2023-02-15T16:46:18;63.44;;;58.40;;
50417;SDS011;36346;48.280;14.292;2023-02-15T16:49:17;67.00;;;61.40;;
50417;SDS011;36346;48.280;14.292;2023-02-15T16:52:04;68.31;;;62.18;;
50417;SDS011;36346;48.280;14.292;2023-02-15T16:54:33;67.19;;;61.43;;
50417;SDS011;36346;48.280;14.292;2023-02-15T16:57:03;68.20;;;62.68;;
50417;SDS011;36346;48.280;14.292;2023-02-15T16:59:36;67.22;;;61.57;;
50417;SDS011;36346;48.280;14.292;2023-02-15T17:02:14;65.67;;;60.50;;
50417;SDS011;36346;48.280;14.292;2023-02-15T17:07:51;67.20;;;61.73;;
50417;SDS011;36346;48.280;14.292;2023-02-15T17:10:37;66.24;;;61.20;;
50417;SDS011;36346;48.280;14.292;2023-02-15T17:13:10;75.67;;;68.34;;
50417;SDS011;36346;48.280;14.292;2023-02-15T17:15:40;84.08;;;74.61;;
50417;SDS011;36346;48.280;14.292;2023-02-15T17:18:17;89.04;;;78.49;;
50417;SDS011;36346;48.280;14.292;2023-02-15T17:20:48;93.79;;;80.91;;
50417;SDS011;36346;48.280;14.292;2023-02-15T17:25:50;84.23;;;74.87;;
50417;SDS011;36346;48.280;14.292;2023-02-15T17:28:20;86.10;;;75.65;;
50417;SDS011;36346;48.280;14.292;2023-02-15T17:30:52;86.75;;;76.45;;
50417;SDS011;36346;48.280;14.292;2023-02-15T17:33:26;86.25;;;76.11;;
50417;SDS011;36346;48.280;14.292;2023-02-15T17:36:14;86.08;;;75.70;;
50417;SDS011;36346;48.280;14.292;2023-02-15T17:41:29;86.47;;;76.62;;
50417;SDS011;36346;48.280;14.292;2023-02-15T17:43:58;87.68;;;78.13;;
50417;SDS011;36346;48.280;14.292;2023-02-15T17:46:26;87.30;;;77.06;;
50417;SDS011;36346;48.280;14.292;2023-02-15T17:49:02;85.28;;;76.01;;
50417;SDS011;36346;48.280;14.292;2023-02-15T17:51:31;82.72;;;73.44;;
50417;SDS011;36346;48.280;14.292;2023-02-15T17:54:02;79.77;;;71.87;;
50417;SDS011;36346;48.280;14.292;2023-02-15T17:56:49;85.21;;;75.26;;
50417;SDS011;36346;48.280;14.292;2023-02-15T17:59:17;86.35;;;76.44;;
50417;SDS011;36346;48.280;14.292;2023-02-15T18:01:45;86.87;;;76.88;;